createdAt,value
2022-08-09T00:00:04.442Z,1.80
2022-08-09T00:02:34.131Z,1.80
2022-08-09T00:06:15.791Z,1.93
2022-08-09T00:07:49.039Z,1.87
2022-08-09T00:10:21.226Z,1.83
2022-08-09T00:12:52.310Z,1.57
2022-08-09T00:15:20.086Z,1.77
2022-08-09T00:18:10.928Z,1.80
2022-08-09T00:20:42.602Z,1.90
2022-08-09T00:23:55.287Z,2.00
2022-08-09T00:26:05.112Z,1.80
2022-08-09T00:28:34.795Z,2.43
2022-08-09T00:31:30.339Z,2.07
2022-08-09T00:33:51.918Z,1.73
2022-08-09T00:36:19.919Z,1.93
2022-08-09T00:38:50.721Z,1.57
2022-08-09T00:44:14.999Z,1.90
2022-08-09T00:44:25.114Z,1.87
2022-08-09T00:46:56.327Z,1.80
2022-08-09T00:49:28.650Z,1.83
2022-08-09T00:52:02.055Z,2.00
2022-08-09T00:54:35.831Z,1.80
2022-08-09T00:57:08.873Z,1.70
2022-08-09T00:59:40.960Z,1.90
2022-08-09T01:02:10.031Z,2.00
2022-08-09T01:04:37.978Z,1.90
2022-08-09T01:07:13.944Z,1.80
2022-08-09T01:09:49.352Z,2.57
2022-08-09T01:12:35.217Z,2.00
2022-08-09T01:15:05.870Z,2.57
2022-08-09T01:17:40.823Z,1.97
2022-08-09T01:20:08.273Z,1.70
2022-08-09T01:22:55.278Z,2.10
2022-08-09T01:25:51.137Z,1.70
2022-08-09T01:28:21.824Z,1.70
2022-08-09T01:30:51.697Z,2.07
2022-08-09T01:33:22.118Z,1.90
2022-08-09T01:35:51.978Z,2.10
2022-08-09T01:38:21.228Z,2.00
2022-08-09T01:41:05.064Z,1.93
2022-08-09T01:43:47.993Z,1.77
2022-08-09T01:46:29.819Z,2.20
2022-08-09T01:49:10.822Z,1.80
2022-08-09T01:51:44.555Z,1.93
2022-08-09T01:54:23.694Z,1.90
2022-08-09T01:56:52.012Z,1.90
2022-08-09T01:59:20.250Z,1.93
2022-08-09T02:01:59.465Z,2.00
2022-08-09T02:04:29.166Z,2.10
2022-08-09T02:07:18.521Z,1.97
2022-08-09T02:10:17.545Z,1.97
2022-08-09T02:12:45.639Z,1.90
2022-08-09T02:15:16.950Z,2.20
2022-08-09T02:18:00.777Z,1.87
2022-08-09T02:20:34.286Z,2.27
2022-08-09T02:23:08.931Z,1.83
2022-08-09T02:25:42.246Z,2.17
2022-08-09T02:28:12.984Z,2.10
2022-08-09T02:30:46.528Z,2.10
2022-08-09T02:33:16.949Z,2.13
2022-08-09T02:36:01.071Z,2.20
2022-08-09T02:38:32.983Z,2.00
2022-08-09T02:41:11.713Z,2.30
2022-08-09T02:43:53.923Z,2.40
2022-08-09T02:46:23.863Z,2.50
2022-08-09T02:48:52.236Z,2.50
2022-08-09T02:51:21.336Z,2.10
2022-08-09T02:53:52.901Z,2.03
2022-08-09T02:56:28.406Z,2.60
2022-08-09T02:58:56.327Z,2.30
2022-08-09T03:01:29.312Z,2.13
2022-08-09T03:04:16.861Z,2.40
2022-08-09T03:06:48.951Z,2.30
2022-08-09T03:09:17.407Z,1.97
2022-08-09T03:12:05.520Z,2.20
2022-08-09T03:14:32.365Z,2.23
2022-08-09T03:17:01.464Z,2.20
2022-08-09T03:19:58.854Z,2.37
2022-08-09T03:22:24.878Z,2.00
2022-08-09T03:25:21.604Z,2.30
2022-08-09T03:27:52.702Z,2.23
2022-08-09T03:30:29.645Z,2.30
2022-08-09T03:33:05.755Z,1.90
2022-08-09T03:36:11.302Z,2.17
2022-08-09T03:38:30.331Z,1.90
2022-08-09T03:40:58.161Z,2.30
2022-08-09T03:43:31.573Z,2.13
2022-08-09T03:46:04.449Z,2.40
2022-08-09T03:48:51.756Z,2.17
2022-08-09T03:51:56.442Z,2.20
2022-08-09T03:54:10.892Z,2.27
2022-08-09T03:56:39.199Z,2.20
2022-08-09T03:59:17.296Z,2.20
2022-08-09T04:01:54.909Z,2.17
2022-08-09T04:04:24.581Z,2.00
2022-08-09T04:06:51.974Z,2.10
2022-08-09T04:09:41.664Z,2.23
2022-08-09T04:12:40.433Z,2.20
2022-08-09T04:15:11.442Z,2.27
2022-08-09T04:17:42.422Z,2.00
2022-08-09T04:20:12.103Z,2.30
2022-08-09T04:22:41.227Z,2.30
2022-08-09T04:25:11.653Z,2.40
2022-08-09T04:27:48.866Z,2.00
2022-08-09T04:30:20.957Z,2.10
2022-08-09T04:32:51.013Z,2.20
2022-08-09T04:35:21.776Z,2.23
2022-08-09T04:37:49.963Z,2.30
2022-08-09T04:40:19.235Z,2.03
2022-08-09T04:42:48.466Z,2.20
2022-08-09T04:45:16.621Z,1.70
2022-08-09T04:48:00.218Z,1.90
2022-08-09T04:50:31.718Z,2.30
2022-08-09T04:53:00.780Z,1.90
2022-08-09T04:55:27.938Z,2.03
2022-08-09T04:58:09.314Z,2.00
2022-08-09T05:00:37.326Z,1.85
2022-08-09T05:03:30.717Z,1.90
2022-08-09T05:06:06.424Z,1.70
2022-08-09T05:08:35.073Z,2.10
2022-08-09T05:11:02.839Z,1.75
2022-08-09T05:13:33.077Z,2.33
2022-08-09T05:16:01.075Z,2.00
2022-08-09T05:18:38.121Z,2.00
2022-08-09T05:21:10.135Z,2.28
2022-08-09T05:23:59.680Z,1.98
2022-08-09T05:26:36.554Z,2.13
2022-08-09T05:29:17.571Z,1.95
2022-08-09T05:31:56.900Z,2.17
2022-08-09T05:34:30.237Z,1.75
2022-08-09T05:37:01.804Z,2.28
2022-08-09T05:39:35.654Z,2.03
2022-08-09T05:42:06.665Z,1.90
2022-08-09T05:44:34.900Z,1.88
2022-08-09T05:47:05.631Z,2.10
2022-08-09T05:50:24.417Z,2.00
2022-08-09T05:52:20.356Z,1.83
2022-08-09T05:54:49.195Z,1.98
2022-08-09T05:57:17.615Z,2.00
2022-08-09T05:59:46.385Z,2.10
2022-08-09T06:02:16.970Z,1.90
2022-08-09T06:04:46.258Z,2.10
2022-08-09T06:07:21.490Z,2.50
2022-08-09T06:10:02.185Z,2.13
2022-08-09T06:12:30.460Z,2.20
2022-08-09T06:15:01.274Z,2.35
2022-08-09T06:17:39.212Z,2.10
2022-08-09T06:20:08.281Z,2.13
2022-08-09T06:22:36.009Z,2.00
2022-08-09T06:25:03.985Z,2.40
2022-08-09T06:27:42.400Z,2.25
2022-08-09T06:30:16.233Z,2.53
2022-08-09T06:33:13.369Z,2.33
2022-08-09T06:35:56.140Z,2.33
2022-08-09T06:38:19.736Z,2.30
2022-08-09T06:40:59.312Z,2.60
2022-08-09T06:43:27.529Z,2.30
2022-08-09T06:46:06.808Z,2.47
2022-08-09T06:48:37.500Z,2.40
2022-08-09T06:51:11.038Z,2.30
2022-08-09T06:53:39.002Z,2.10
2022-08-09T06:56:07.977Z,2.38
2022-08-09T07:00:47.407Z,1.90
2022-08-09T07:01:24.031Z,2.17
2022-08-09T07:03:57.804Z,1.90
2022-08-09T07:06:30.932Z,2.03
2022-08-09T07:08:58.598Z,2.25
2022-08-09T07:11:25.821Z,2.08
2022-08-09T07:14:04.895Z,1.83
2022-08-09T07:16:42.522Z,2.10
2022-08-09T07:19:18.676Z,2.00
2022-08-09T07:21:57.047Z,2.00
2022-08-09T07:24:32.711Z,2.00
2022-08-09T07:27:10.877Z,2.20
2022-08-09T07:29:56.778Z,1.90
2022-08-09T07:32:33.582Z,1.90
2022-08-09T07:35:08.077Z,2.00
2022-08-09T07:37:43.351Z,1.77
2022-08-09T07:40:13.266Z,1.90
2022-08-09T07:42:50.137Z,1.77
2022-08-09T07:45:22.776Z,1.92
2022-08-09T07:48:01.723Z,1.85
2022-08-09T07:50:34.725Z,1.88
2022-08-09T07:53:04.752Z,2.00
2022-08-09T07:55:41.659Z,2.08
2022-08-09T07:58:21.433Z,1.58
2022-08-09T08:00:55.746Z,1.83
2022-08-09T08:03:26.778Z,1.70
2022-08-09T08:05:58.212Z,1.40
2022-08-09T08:09:00.938Z,1.50
2022-08-09T08:12:11.583Z,1.40
2022-08-09T08:14:01.130Z,1.55
2022-08-09T08:16:31.785Z,1.50
2022-08-09T08:18:59.605Z,1.55
2022-08-09T08:21:30.708Z,1.70
2022-08-09T08:24:01.256Z,1.58
2022-08-09T08:26:54.914Z,1.50
2022-08-09T08:29:28.075Z,1.52
2022-08-09T08:32:04.302Z,1.33
2022-08-09T08:34:34.732Z,1.30
2022-08-09T08:37:03.455Z,1.60
2022-08-09T08:39:32.984Z,1.40
2022-08-09T08:42:11.209Z,1.38
2022-08-09T08:44:39.518Z,1.65
2022-08-09T08:47:12.769Z,1.40
2022-08-09T08:49:46.742Z,1.50
2022-08-09T08:52:50.488Z,1.42
2022-08-09T08:55:05.570Z,1.73
2022-08-09T08:57:34.958Z,1.67
2022-08-09T09:00:03.609Z,1.60
2022-08-09T09:02:40.966Z,1.67
2022-08-09T09:05:11.906Z,1.80
2022-08-09T09:07:42.437Z,1.88
2022-08-09T09:10:10.658Z,1.55
2022-08-09T09:12:38.069Z,1.70
2022-08-09T09:15:06.425Z,1.73
2022-08-09T09:17:48.339Z,1.70
2022-08-09T09:20:17.343Z,1.75
2022-08-09T09:23:01.715Z,1.63
2022-08-09T09:26:04.821Z,1.73
2022-08-09T09:28:38.937Z,1.70
2022-08-09T09:31:17.126Z,1.83
2022-08-09T09:34:14.657Z,1.70
2022-08-09T09:36:46.657Z,1.45
2022-08-09T09:39:22.864Z,1.65
2022-08-09T09:41:51.863Z,1.80
2022-08-09T09:44:25.592Z,2.13
2022-08-09T09:46:56.410Z,1.80
2022-08-09T09:49:50.129Z,1.65
2022-08-09T09:52:16.546Z,1.70
2022-08-09T09:55:16.629Z,1.70
2022-08-09T09:58:03.629Z,1.58
2022-08-09T10:00:52.537Z,1.80
2022-08-09T10:03:43.394Z,1.63
2022-08-09T10:06:12.664Z,1.60
2022-08-09T10:08:54.608Z,1.30
2022-08-09T10:11:59.413Z,1.40
2022-08-09T10:14:30.579Z,1.40
2022-08-09T10:17:23.991Z,1.50
2022-08-09T10:19:47.322Z,1.60
2022-08-09T10:22:39.505Z,1.42
2022-08-09T10:25:12.229Z,1.50
2022-08-09T10:27:56.954Z,1.70
2022-08-09T10:33:29.722Z,1.40
2022-08-09T10:36:02.166Z,1.60
2022-08-09T10:38:54.364Z,1.30
2022-08-09T10:41:18.705Z,1.50
2022-08-09T10:43:59.097Z,1.55
2022-08-09T10:46:31.114Z,1.45
2022-08-09T10:49:07.260Z,1.85
2022-08-09T10:51:41.187Z,1.27
2022-08-09T10:54:12.992Z,1.50
2022-08-09T10:56:41.811Z,1.60
2022-08-09T10:59:30.958Z,1.67
2022-08-09T11:03:16.333Z,1.40
2022-08-09T11:05:05.923Z,1.48
2022-08-09T11:07:57.782Z,1.38
2022-08-09T11:10:54.344Z,1.58
2022-08-09T11:13:51.380Z,1.60
2022-08-09T11:16:35.016Z,1.33
2022-08-09T11:19:03.245Z,1.60
2022-08-09T11:21:55.010Z,1.52
2022-08-09T11:24:51.783Z,1.60
2022-08-09T11:28:03.613Z,1.40
2022-08-09T11:30:32.116Z,1.60
2022-08-09T11:33:04.186Z,1.52
2022-08-09T11:35:49.125Z,1.50
2022-08-09T11:38:18.310Z,1.50
2022-08-09T11:40:45.673Z,1.52
2022-08-09T11:43:17.295Z,1.30
2022-08-09T11:45:54.961Z,1.60
2022-08-09T11:48:27.509Z,1.40
2022-08-09T11:52:56.386Z,1.50
2022-08-09T11:53:58.835Z,1.40
2022-08-09T11:56:42.673Z,1.70
2022-08-09T11:59:30.572Z,1.40
2022-08-09T12:02:17.021Z,1.50
2022-08-09T12:04:47.943Z,1.42
2022-08-09T12:07:22.021Z,1.50
2022-08-09T12:09:50.926Z,1.50
2022-08-09T12:12:28.614Z,1.40
2022-08-09T12:15:07.794Z,1.40
2022-08-09T12:17:43.512Z,1.35
2022-08-09T12:20:21.730Z,1.50
2022-08-09T12:22:53.193Z,1.88
2022-08-09T12:25:36.864Z,1.45
2022-08-09T12:29:00.150Z,1.50
2022-08-09T12:31:59.313Z,1.40
2022-08-09T12:34:08.440Z,1.55
2022-08-09T12:36:50.655Z,1.50
2022-08-09T12:39:17.974Z,1.60
2022-08-09T12:41:46.790Z,1.50
2022-08-09T12:44:17.390Z,1.50
2022-08-09T12:46:51.860Z,1.70
2022-08-09T12:49:21.311Z,1.75
2022-08-09T12:52:01.673Z,1.60
2022-08-09T12:54:31.134Z,1.73
2022-08-09T12:56:58.936Z,1.55
2022-08-09T12:59:39.711Z,1.63
2022-08-09T13:02:20.578Z,1.67
2022-08-09T13:05:02.585Z,1.63
2022-08-09T13:07:51.569Z,1.50
2022-08-09T13:10:17.651Z,1.75
2022-08-09T13:13:10.122Z,1.80
2022-08-09T13:15:36.080Z,1.70
2022-08-09T13:18:09.405Z,1.50
2022-08-09T13:21:03.890Z,1.70
2022-08-09T13:24:42.392Z,1.70
2022-08-09T13:26:49.962Z,1.63
2022-08-09T13:29:42.052Z,1.75
2022-08-09T13:32:13.750Z,1.70
2022-08-09T13:34:46.217Z,1.52
2022-08-09T13:37:15.761Z,1.85
2022-08-09T13:41:56.540Z,1.92
2022-08-09T13:42:50.009Z,1.50
2022-08-09T13:45:17.918Z,1.48
2022-08-09T13:47:52.654Z,1.42
2022-08-09T13:50:30.939Z,1.80
2022-08-09T13:52:59.092Z,1.48
2022-08-09T13:55:29.062Z,1.35
2022-08-09T13:57:59.609Z,1.50
2022-08-09T14:00:28.968Z,1.60
2022-08-09T14:03:04.534Z,1.58
2022-08-09T14:05:58.778Z,1.60
2022-08-09T14:08:29.220Z,1.45
2022-08-09T14:10:57.189Z,1.42
2022-08-09T14:14:14.841Z,1.40
2022-08-09T14:16:16.221Z,1.35
2022-08-09T14:18:49.603Z,1.70
2022-08-09T14:21:22.951Z,1.75
2022-08-09T14:23:55.438Z,1.40
2022-08-09T14:26:32.795Z,1.55
2022-08-09T14:29:01.800Z,1.70
2022-08-09T14:31:35.841Z,1.55
2022-08-09T14:34:17.391Z,1.60
2022-08-09T14:36:54.404Z,1.60
2022-08-09T14:39:21.598Z,1.77
2022-08-09T14:42:08.801Z,1.52
2022-08-09T14:44:48.921Z,1.60
2022-08-09T14:47:41.291Z,1.70
2022-08-09T14:50:11.051Z,1.90
2022-08-09T14:52:38.479Z,1.58
2022-08-09T14:55:06.927Z,1.80
2022-08-09T14:57:43.040Z,1.75
2022-08-09T15:00:11.733Z,1.75
2022-08-09T15:02:39.000Z,1.60
2022-08-09T15:05:07.586Z,1.63
2022-08-09T15:07:35.338Z,1.70
2022-08-09T15:10:07.549Z,1.80
2022-08-09T15:12:38.543Z,1.80
2022-08-09T15:15:08.602Z,1.88
2022-08-09T15:17:42.676Z,1.70
2022-08-09T15:20:15.295Z,1.80
2022-08-09T15:24:01.406Z,1.63
2022-08-09T15:25:55.695Z,1.70
2022-08-09T15:28:28.445Z,1.73
2022-08-09T15:31:08.573Z,1.90
2022-08-09T15:34:17.310Z,1.80
2022-08-09T15:36:28.826Z,1.98
2022-08-09T15:38:57.350Z,1.60
2022-08-09T15:41:31.174Z,1.60
2022-08-09T15:43:59.549Z,1.67
2022-08-09T15:46:33.871Z,1.58
2022-08-09T15:49:21.986Z,1.73
2022-08-09T15:52:04.758Z,1.77
2022-08-09T15:54:46.111Z,1.88
2022-08-09T15:57:19.176Z,1.88
2022-08-09T16:00:14.135Z,1.70
2022-08-09T16:02:43.107Z,1.80
2022-08-09T16:05:22.000Z,1.77
2022-08-09T16:07:50.683Z,1.77
2022-08-09T16:10:54.823Z,1.60
2022-08-09T16:13:08.481Z,1.75
2022-08-09T16:16:10.835Z,1.88
2022-08-09T16:18:34.174Z,1.90
2022-08-09T16:21:01.310Z,1.92
2022-08-09T16:23:28.477Z,1.80
2022-08-09T16:26:00.964Z,1.98
2022-08-09T16:28:30.068Z,1.70
2022-08-09T16:30:59.655Z,1.70
2022-08-09T16:33:30.915Z,1.90
2022-08-09T16:36:08.475Z,2.00
2022-08-09T16:38:41.632Z,1.77
2022-08-09T16:41:08.773Z,1.80
2022-08-09T16:43:44.283Z,1.60
2022-08-09T16:46:12.398Z,2.13
2022-08-09T16:48:56.806Z,1.80
2022-08-09T16:51:28.169Z,2.05
2022-08-09T16:54:25.124Z,1.90
2022-08-09T16:56:49.213Z,1.83
2022-08-09T16:59:16.749Z,2.17
2022-08-09T17:01:51.048Z,2.15
2022-08-09T17:04:26.012Z,2.00
2022-08-09T17:08:41.021Z,1.90
2022-08-09T17:09:44.579Z,2.00
2022-08-09T17:12:14.054Z,1.83
2022-08-09T17:14:48.094Z,1.98
2022-08-09T17:17:26.874Z,1.90
2022-08-09T17:20:29.669Z,2.35
2022-08-09T17:22:49.776Z,2.10
2022-08-09T17:25:17.825Z,2.25
2022-08-09T17:27:49.091Z,2.05
2022-08-09T17:30:21.526Z,1.90
2022-08-09T17:32:53.277Z,1.90
2022-08-09T17:35:20.437Z,1.80
2022-08-09T17:38:12.141Z,1.95
2022-08-09T17:40:35.684Z,2.20
2022-08-09T17:43:33.101Z,1.88
2022-08-09T17:46:03.203Z,2.10
2022-08-09T17:48:33.717Z,2.08
2022-08-09T17:51:10.340Z,2.03
2022-08-09T17:53:51.631Z,2.00
2022-08-09T17:56:19.722Z,2.30
2022-08-09T17:58:47.533Z,2.67
2022-08-09T18:01:22.286Z,2.28
2022-08-09T18:03:50.225Z,2.20
2022-08-09T18:06:30.687Z,2.17
2022-08-09T18:08:58.716Z,2.00
2022-08-09T18:11:26.305Z,2.45
2022-08-09T18:14:00.502Z,2.20
2022-08-09T18:16:35.747Z,2.50
2022-08-09T18:20:55.134Z,2.08
2022-08-09T18:22:04.276Z,2.00
2022-08-09T18:24:31.527Z,2.15
2022-08-09T18:27:01.327Z,2.10
2022-08-09T18:30:40.546Z,2.35
2022-08-09T18:32:18.923Z,2.40
2022-08-09T18:34:48.230Z,2.30
2022-08-09T18:37:47.590Z,2.20
2022-08-09T18:40:03.044Z,2.38
2022-08-09T18:42:30.929Z,2.20
2022-08-09T18:45:01.174Z,2.10
2022-08-09T18:47:37.245Z,2.28
2022-08-09T18:50:06.216Z,2.10
2022-08-09T18:52:36.646Z,2.22
2022-08-09T18:55:05.430Z,2.33
2022-08-09T18:57:44.521Z,2.10
2022-08-09T19:00:16.662Z,2.22
2022-08-09T19:02:47.416Z,2.47
2022-08-09T19:05:28.961Z,2.22
2022-08-09T19:08:09.957Z,2.40
2022-08-09T19:10:39.919Z,2.83
2022-08-09T19:13:22.695Z,2.40
2022-08-09T19:15:50.923Z,2.78
2022-08-09T19:18:33.925Z,2.42
2022-08-09T19:21:05.293Z,2.58
2022-08-09T19:24:35.660Z,2.35
2022-08-09T19:26:29.043Z,2.67
2022-08-09T19:29:02.013Z,2.40
2022-08-09T19:31:30.467Z,2.63
2022-08-09T19:34:21.236Z,2.30
2022-08-09T19:36:50.942Z,1.90
2022-08-09T19:39:20.766Z,2.30
2022-08-09T19:42:05.318Z,2.30
2022-08-09T19:44:34.516Z,2.38
2022-08-09T19:47:02.119Z,2.60
2022-08-09T19:50:06.929Z,2.28
2022-08-09T19:52:16.460Z,2.10
2022-08-09T19:54:45.976Z,2.30
2022-08-09T19:57:13.193Z,2.03
2022-08-09T19:59:59.422Z,2.40
2022-08-09T20:04:12.489Z,2.08
2022-08-09T20:05:16.678Z,2.22
2022-08-09T20:08:00.195Z,2.15
2022-08-09T20:10:34.890Z,2.20
2022-08-09T20:13:05.331Z,2.20
2022-08-09T20:16:38.058Z,2.30
2022-08-09T20:18:22.201Z,1.90
2022-08-09T20:20:51.011Z,2.10
2022-08-09T20:23:21.162Z,2.33
2022-08-09T20:25:53.569Z,2.25
2022-08-09T20:28:32.038Z,2.05
2022-08-09T20:31:02.637Z,2.20
2022-08-09T20:33:39.093Z,2.30
2022-08-09T20:36:11.617Z,2.00
2022-08-09T20:39:18.689Z,1.95
2022-08-09T20:41:35.084Z,2.20
2022-08-09T20:44:10.206Z,2.00
2022-08-09T20:46:44.658Z,2.05
2022-08-09T20:49:16.063Z,2.15
2022-08-09T20:51:44.146Z,2.40
2022-08-09T20:54:16.558Z,2.20
2022-08-09T20:56:47.049Z,2.00
2022-08-09T20:59:17.493Z,2.00
2022-08-09T21:01:50.327Z,2.20
2022-08-09T21:05:52.733Z,2.00
2022-08-09T21:07:11.483Z,1.98
2022-08-09T21:09:45.105Z,2.17
2022-08-09T21:14:48.211Z,2.22
2022-08-09T21:18:23.978Z,2.38
2022-08-09T21:20:18.007Z,2.08
2022-08-09T21:22:52.687Z,2.05
2022-08-09T21:25:44.479Z,1.88
2022-08-09T21:28:33.155Z,2.30
2022-08-09T21:31:13.761Z,2.13
2022-08-09T21:33:45.390Z,2.20
2022-08-09T21:36:18.292Z,2.25
2022-08-09T21:38:51.044Z,2.60
2022-08-09T21:42:00.208Z,2.13
2022-08-09T21:44:12.605Z,2.30
2022-08-09T21:46:42.738Z,2.05
2022-08-09T21:49:10.824Z,2.00
2022-08-09T21:51:43.812Z,2.60
2022-08-09T21:54:12.149Z,2.40
2022-08-09T21:56:44.794Z,2.33
2022-08-09T21:59:23.218Z,2.60
2022-08-09T22:02:00.648Z,2.50
2022-08-09T22:04:44.797Z,2.35
2022-08-09T22:07:35.383Z,2.35
2022-08-09T22:10:03.299Z,2.25
2022-08-09T22:12:32.058Z,2.53
2022-08-09T22:14:59.332Z,2.30
2022-08-09T22:17:28.164Z,2.45
2022-08-09T22:20:00.858Z,2.45
2022-08-09T22:22:30.927Z,2.28
2022-08-09T22:26:06.970Z,2.53
2022-08-09T22:27:48.713Z,2.60
2022-08-09T22:30:15.991Z,2.05
2022-08-09T22:32:53.658Z,2.13
2022-08-09T22:36:02.442Z,2.20
2022-08-09T22:38:08.112Z,2.28
2022-08-09T22:40:35.758Z,2.25
2022-08-09T22:43:16.185Z,2.17
2022-08-09T22:48:14.396Z,2.17
2022-08-09T22:48:37.515Z,2.20
2022-08-09T22:51:10.849Z,2.50
2022-08-09T22:54:01.136Z,2.25
2022-08-09T22:56:34.010Z,2.20
2022-08-09T22:59:05.508Z,2.30
2022-08-09T23:01:33.539Z,2.92
2022-08-09T23:04:05.708Z,2.20
2022-08-09T23:06:52.833Z,2.60
2022-08-09T23:09:19.973Z,2.15
2022-08-09T23:11:47.107Z,2.35
2022-08-09T23:14:17.227Z,2.60
2022-08-09T23:16:44.783Z,2.80
2022-08-09T23:19:11.939Z,2.20
2022-08-09T23:21:39.454Z,2.40
2022-08-09T23:24:07.390Z,2.05
2022-08-09T23:26:37.902Z,2.40
2022-08-09T23:29:11.363Z,2.30
2022-08-09T23:31:38.551Z,2.58
2022-08-09T23:34:05.731Z,2.60
2022-08-09T23:36:33.902Z,2.10
2022-08-09T23:39:01.201Z,2.50
2022-08-09T23:41:29.662Z,2.30
2022-08-09T23:44:00.420Z,2.10
2022-08-09T23:46:28.444Z,2.50
2022-08-09T23:48:55.728Z,2.25
2022-08-09T23:51:22.861Z,2.10
2022-08-09T23:53:50.582Z,2.42
2022-08-09T23:56:39.605Z,2.40
2022-08-09T23:59:06.910Z,2.40
